sensor_id;sensor_type;location;lat;lon;timestamp;P1;durP1;ratioP1;P2;durP2;ratioP2
79124;SDS011;68527;39.470;-0.376;2023-04-25T00:04:37;3.80;;;2.30;;
79124;SDS011;68527;39.470;-0.376;2023-04-25T00:07:03;3.90;;;1.90;;
79124;SDS011;68527;39.470;-0.376;2023-04-25T00:09:28;2.50;;;1.80;;
79124;SDS011;68527;39.470;-0.376;2023-04-25T00:11:54;2.80;;;1.80;;
79124;SDS011;68527;39.470;-0.376;2023-04-25T00:14:20;2.50;;;1.80;;
79124;SDS011;68527;39.470;-0.376;2023-04-25T00:16:46;3.50;;;2.10;;
79124;SDS011;68527;39.470;-0.376;2023-04-25T00:19:11;2.60;;;1.70;;
79124;SDS011;68527;39.470;-0.376;2023-04-25T00:21:38;4.00;;;2.10;;
79124;SDS011;68527;39.470;-0.376;2023-04-25T00:24:08;3.70;;;2.20;;
79124;SDS011;68527;39.470;-0.376;2023-04-25T00:26:34;3.80;;;2.10;;
79124;SDS011;68527;39.470;-0.376;2023-04-25T00:29:00;4.30;;;2.30;;
79124;SDS011;68527;39.470;-0.376;2023-04-25T00:31:26;2.60;;;2.00;;
79124;SDS011;68527;39.470;-0.376;2023-04-25T00:33:52;3.20;;;2.40;;
79124;SDS011;68527;39.470;-0.376;2023-04-25T00:36:18;3.80;;;2.10;;
79124;SDS011;68527;39.470;-0.376;2023-04-25T00:38:43;3.10;;;2.30;;
79124;SDS011;68527;39.470;-0.376;2023-04-25T00:41:09;3.50;;;2.00;;
79124;SDS011;68527;39.470;-0.376;2023-04-25T00:43:36;3.40;;;2.20;;
79124;SDS011;68527;39.470;-0.376;2023-04-25T00:46:02;3.30;;;2.30;;
79124;SDS011;68527;39.470;-0.376;2023-04-25T00:48:28;4.30;;;2.00;;
79124;SDS011;68527;39.470;-0.376;2023-04-25T00:50:54;3.50;;;1.90;;
79124;SDS011;68527;39.470;-0.376;2023-04-25T00:53:22;2.60;;;1.90;;
79124;SDS011;68527;39.470;-0.376;2023-04-25T00:55:50;3.80;;;1.70;;
79124;SDS011;68527;39.470;-0.376;2023-04-25T00:58:17;3.20;;;2.20;;
79124;SDS011;68527;39.470;-0.376;2023-04-25T01:00:43;2.60;;;1.90;;
79124;SDS011;68527;39.470;-0.376;2023-04-25T01:03:16;3.30;;;1.90;;
79124;SDS011;68527;39.470;-0.376;2023-04-25T01:05:42;2.30;;;1.70;;
79124;SDS011;68527;39.470;-0.376;2023-04-25T01:08:08;2.80;;;1.90;;
79124;SDS011;68527;39.470;-0.376;2023-04-25T01:10:34;4.70;;;2.00;;
79124;SDS011;68527;39.470;-0.376;2023-04-25T01:13:00;2.30;;;1.90;;
79124;SDS011;68527;39.470;-0.376;2023-04-25T01:15:26;4.40;;;2.10;;
79124;SDS011;68527;39.470;-0.376;2023-04-25T01:17:52;2.60;;;1.80;;
79124;SDS011;68527;39.470;-0.376;2023-04-25T01:20:18;3.20;;;2.40;;
79124;SDS011;68527;39.470;-0.376;2023-04-25T01:22:47;4.20;;;2.10;;
79124;SDS011;68527;39.470;-0.376;2023-04-25T01:25:13;5.40;;;2.30;;
79124;SDS011;68527;39.470;-0.376;2023-04-25T01:27:41;4.00;;;2.30;;
79124;SDS011;68527;39.470;-0.376;2023-04-25T01:30:06;2.60;;;1.60;;
79124;SDS011;68527;39.470;-0.376;2023-04-25T01:32:33;2.40;;;1.70;;
79124;SDS011;68527;39.470;-0.376;2023-04-25T01:35:06;3.20;;;2.00;;
79124;SDS011;68527;39.470;-0.376;2023-04-25T01:37:37;2.30;;;1.90;;
79124;SDS011;68527;39.470;-0.376;2023-04-25T01:40:03;2.40;;;1.90;;
79124;SDS011;68527;39.470;-0.376;2023-04-25T01:42:33;2.90;;;1.90;;
79124;SDS011;68527;39.470;-0.376;2023-04-25T01:44:59;3.60;;;1.90;;
79124;SDS011;68527;39.470;-0.376;2023-04-25T01:47:25;3.50;;;1.90;;
79124;SDS011;68527;39.470;-0.376;2023-04-25T01:49:51;2.70;;;2.00;;
79124;SDS011;68527;39.470;-0.376;2023-04-25T01:52:16;4.20;;;1.80;;
79124;SDS011;68527;39.470;-0.376;2023-04-25T01:54:42;5.40;;;2.20;;
79124;SDS011;68527;39.470;-0.376;2023-04-25T01:57:10;3.30;;;2.00;;
79124;SDS011;68527;39.470;-0.376;2023-04-25T01:59:36;3.30;;;2.20;;
79124;SDS011;68527;39.470;-0.376;2023-04-25T02:02:02;3.00;;;2.10;;
79124;SDS011;68527;39.470;-0.376;2023-04-25T02:04:30;2.30;;;2.00;;
79124;SDS011;68527;39.470;-0.376;2023-04-25T02:09:22;5.90;;;1.80;;
79124;SDS011;68527;39.470;-0.376;2023-04-25T02:11:47;3.40;;;1.90;;
79124;SDS011;68527;39.470;-0.376;2023-04-25T02:14:13;3.00;;;2.20;;
79124;SDS011;68527;39.470;-0.376;2023-04-25T02:16:39;5.50;;;2.30;;
79124;SDS011;68527;39.470;-0.376;2023-04-25T02:19:04;3.00;;;2.00;;
79124;SDS011;68527;39.470;-0.376;2023-04-25T02:21:31;2.50;;;1.90;;
79124;SDS011;68527;39.470;-0.376;2023-04-25T02:23:57;3.50;;;2.10;;
79124;SDS011;68527;39.470;-0.376;2023-04-25T02:26:22;4.20;;;2.20;;
79124;SDS011;68527;39.470;-0.376;2023-04-25T02:28:49;4.30;;;2.00;;
79124;SDS011;68527;39.470;-0.376;2023-04-25T02:31:15;2.70;;;1.90;;
79124;SDS011;68527;39.470;-0.376;2023-04-25T02:33:41;2.50;;;2.00;;
79124;SDS011;68527;39.470;-0.376;2023-04-25T02:38:32;3.00;;;1.80;;
79124;SDS011;68527;39.470;-0.376;2023-04-25T02:40:58;4.60;;;2.00;;
79124;SDS011;68527;39.470;-0.376;2023-04-25T02:43:23;3.50;;;2.00;;
79124;SDS011;68527;39.470;-0.376;2023-04-25T02:48:14;3.50;;;1.80;;
79124;SDS011;68527;39.470;-0.376;2023-04-25T02:53:05;2.60;;;1.70;;
79124;SDS011;68527;39.470;-0.376;2023-04-25T02:55:31;2.70;;;1.70;;
79124;SDS011;68527;39.470;-0.376;2023-04-25T03:00:22;4.20;;;2.40;;
79124;SDS011;68527;39.470;-0.376;2023-04-25T03:02:48;5.00;;;2.00;;
79124;SDS011;68527;39.470;-0.376;2023-04-25T03:05:13;2.40;;;1.80;;
79124;SDS011;68527;39.470;-0.376;2023-04-25T03:07:39;3.10;;;2.10;;
79124;SDS011;68527;39.470;-0.376;2023-04-25T03:10:06;5.10;;;2.30;;
79124;SDS011;68527;39.470;-0.376;2023-04-25T03:12:32;2.80;;;2.00;;
79124;SDS011;68527;39.470;-0.376;2023-04-25T03:17:25;3.20;;;2.20;;
79124;SDS011;68527;39.470;-0.376;2023-04-25T03:19:50;5.20;;;2.10;;
79124;SDS011;68527;39.470;-0.376;2023-04-25T03:22:16;2.60;;;2.20;;
79124;SDS011;68527;39.470;-0.376;2023-04-25T03:27:07;3.70;;;2.30;;
79124;SDS011;68527;39.470;-0.376;2023-04-25T03:29:33;4.20;;;2.10;;
79124;SDS011;68527;39.470;-0.376;2023-04-25T03:34:24;3.90;;;1.90;;
79124;SDS011;68527;39.470;-0.376;2023-04-25T03:36:51;2.70;;;2.00;;
79124;SDS011;68527;39.470;-0.376;2023-04-25T03:39:17;2.60;;;2.10;;
79124;SDS011;68527;39.470;-0.376;2023-04-25T03:41:43;3.20;;;1.90;;
79124;SDS011;68527;39.470;-0.376;2023-04-25T03:46:34;2.90;;;2.10;;
79124;SDS011;68527;39.470;-0.376;2023-04-25T03:48:59;2.80;;;1.80;;
79124;SDS011;68527;39.470;-0.376;2023-04-25T03:53:51;4.10;;;1.80;;
79124;SDS011;68527;39.470;-0.376;2023-04-25T03:56:17;3.20;;;2.20;;
79124;SDS011;68527;39.470;-0.376;2023-04-25T03:58:43;3.10;;;1.90;;
79124;SDS011;68527;39.470;-0.376;2023-04-25T04:01:09;4.60;;;1.70;;
79124;SDS011;68527;39.470;-0.376;2023-04-25T04:03:35;2.60;;;1.80;;
79124;SDS011;68527;39.470;-0.376;2023-04-25T04:06:04;2.40;;;1.90;;
79124;SDS011;68527;39.470;-0.376;2023-04-25T04:08:33;3.10;;;1.90;;
79124;SDS011;68527;39.470;-0.376;2023-04-25T04:10:59;2.60;;;1.80;;
79124;SDS011;68527;39.470;-0.376;2023-04-25T04:13:25;2.60;;;1.70;;
79124;SDS011;68527;39.470;-0.376;2023-04-25T04:15:52;2.40;;;1.70;;
79124;SDS011;68527;39.470;-0.376;2023-04-25T04:18:17;3.00;;;1.80;;
79124;SDS011;68527;39.470;-0.376;2023-04-25T04:23:08;3.60;;;2.40;;
79124;SDS011;68527;39.470;-0.376;2023-04-25T04:28:00;2.70;;;1.80;;
79124;SDS011;68527;39.470;-0.376;2023-04-25T04:30:26;3.20;;;2.00;;
79124;SDS011;68527;39.470;-0.376;2023-04-25T04:32:56;2.70;;;1.70;;
79124;SDS011;68527;39.470;-0.376;2023-04-25T04:35:22;4.00;;;1.70;;
79124;SDS011;68527;39.470;-0.376;2023-04-25T04:37:48;2.90;;;1.80;;
79124;SDS011;68527;39.470;-0.376;2023-04-25T04:40:14;3.60;;;1.90;;
79124;SDS011;68527;39.470;-0.376;2023-04-25T04:42:41;4.70;;;1.70;;
79124;SDS011;68527;39.470;-0.376;2023-04-25T04:45:13;3.50;;;1.60;;
79124;SDS011;68527;39.470;-0.376;2023-04-25T04:47:39;4.00;;;1.70;;
79124;SDS011;68527;39.470;-0.376;2023-04-25T04:50:06;2.40;;;1.70;;
79124;SDS011;68527;39.470;-0.376;2023-04-25T04:52:34;3.80;;;1.80;;
79124;SDS011;68527;39.470;-0.376;2023-04-25T04:55:01;3.60;;;1.70;;
79124;SDS011;68527;39.470;-0.376;2023-04-25T04:57:28;4.30;;;2.10;;
79124;SDS011;68527;39.470;-0.376;2023-04-25T04:59:54;3.70;;;1.80;;
79124;SDS011;68527;39.470;-0.376;2023-04-25T05:02:20;2.70;;;1.80;;
79124;SDS011;68527;39.470;-0.376;2023-04-25T05:04:45;3.10;;;1.80;;
79124;SDS011;68527;39.470;-0.376;2023-04-25T05:07:12;3.50;;;1.70;;
79124;SDS011;68527;39.470;-0.376;2023-04-25T05:09:37;2.00;;;1.30;;
79124;SDS011;68527;39.470;-0.376;2023-04-25T05:14:29;3.00;;;1.50;;
79124;SDS011;68527;39.470;-0.376;2023-04-25T05:16:54;3.70;;;1.90;;
79124;SDS011;68527;39.470;-0.376;2023-04-25T05:21:45;3.70;;;1.70;;
79124;SDS011;68527;39.470;-0.376;2023-04-25T05:24:11;3.60;;;1.90;;
79124;SDS011;68527;39.470;-0.376;2023-04-25T05:26:37;3.80;;;2.10;;
79124;SDS011;68527;39.470;-0.376;2023-04-25T05:29:02;6.10;;;1.90;;
79124;SDS011;68527;39.470;-0.376;2023-04-25T05:31:28;5.40;;;2.40;;
79124;SDS011;68527;39.470;-0.376;2023-04-25T05:33:54;6.20;;;2.20;;
79124;SDS011;68527;39.470;-0.376;2023-04-25T05:36:20;5.10;;;2.10;;
79124;SDS011;68527;39.470;-0.376;2023-04-25T05:38:46;9.00;;;2.80;;
79124;SDS011;68527;39.470;-0.376;2023-04-25T05:41:12;6.20;;;2.40;;
79124;SDS011;68527;39.470;-0.376;2023-04-25T05:43:37;3.60;;;2.00;;
79124;SDS011;68527;39.470;-0.376;2023-04-25T05:48:28;4.20;;;2.10;;
79124;SDS011;68527;39.470;-0.376;2023-04-25T05:50:55;5.60;;;2.50;;
79124;SDS011;68527;39.470;-0.376;2023-04-25T05:53:20;4.70;;;2.50;;
79124;SDS011;68527;39.470;-0.376;2023-04-25T05:55:47;7.20;;;2.10;;
79124;SDS011;68527;39.470;-0.376;2023-04-25T05:58:12;4.90;;;2.80;;
79124;SDS011;68527;39.470;-0.376;2023-04-25T06:00:38;5.30;;;2.50;;
79124;SDS011;68527;39.470;-0.376;2023-04-25T06:05:29;4.30;;;2.10;;
79124;SDS011;68527;39.470;-0.376;2023-04-25T06:07:55;3.50;;;2.20;;
79124;SDS011;68527;39.470;-0.376;2023-04-25T06:10:20;5.50;;;2.40;;
79124;SDS011;68527;39.470;-0.376;2023-04-25T06:12:47;4.80;;;2.30;;
79124;SDS011;68527;39.470;-0.376;2023-04-25T06:15:13;6.00;;;2.60;;
79124;SDS011;68527;39.470;-0.376;2023-04-25T06:17:38;7.80;;;2.70;;
79124;SDS011;68527;39.470;-0.376;2023-04-25T06:22:31;5.70;;;2.40;;
79124;SDS011;68527;39.470;-0.376;2023-04-25T06:24:56;5.60;;;2.70;;
79124;SDS011;68527;39.470;-0.376;2023-04-25T06:27:24;9.60;;;2.90;;
79124;SDS011;68527;39.470;-0.376;2023-04-25T06:32:14;9.80;;;2.50;;
79124;SDS011;68527;39.470;-0.376;2023-04-25T06:34:40;7.40;;;2.50;;
79124;SDS011;68527;39.470;-0.376;2023-04-25T06:37:06;8.80;;;2.60;;
79124;SDS011;68527;39.470;-0.376;2023-04-25T06:39:31;12.40;;;2.90;;
79124;SDS011;68527;39.470;-0.376;2023-04-25T06:41:57;10.30;;;3.20;;
79124;SDS011;68527;39.470;-0.376;2023-04-25T06:44:22;10.50;;;2.80;;
79124;SDS011;68527;39.470;-0.376;2023-04-25T06:46:49;8.00;;;2.40;;
79124;SDS011;68527;39.470;-0.376;2023-04-25T06:49:15;7.30;;;2.30;;
79124;SDS011;68527;39.470;-0.376;2023-04-25T06:54:06;7.00;;;2.40;;
79124;SDS011;68527;39.470;-0.376;2023-04-25T06:56:31;9.90;;;2.70;;
79124;SDS011;68527;39.470;-0.376;2023-04-25T06:58:57;12.30;;;2.60;;
79124;SDS011;68527;39.470;-0.376;2023-04-25T07:01:23;9.20;;;3.00;;
79124;SDS011;68527;39.470;-0.376;2023-04-25T07:03:49;8.60;;;2.70;;
79124;SDS011;68527;39.470;-0.376;2023-04-25T07:08:40;8.50;;;2.60;;
79124;SDS011;68527;39.470;-0.376;2023-04-25T07:11:05;10.40;;;3.20;;
79124;SDS011;68527;39.470;-0.376;2023-04-25T07:15:56;9.60;;;3.50;;
79124;SDS011;68527;39.470;-0.376;2023-04-25T07:18:22;9.50;;;3.50;;
79124;SDS011;68527;39.470;-0.376;2023-04-25T07:20:48;12.20;;;3.70;;
79124;SDS011;68527;39.470;-0.376;2023-04-25T07:25:39;12.50;;;3.40;;
79124;SDS011;68527;39.470;-0.376;2023-04-25T07:28:04;10.50;;;3.60;;
79124;SDS011;68527;39.470;-0.376;2023-04-25T07:32:55;7.80;;;3.30;;
79124;SDS011;68527;39.470;-0.376;2023-04-25T07:35:21;8.10;;;2.80;;
79124;SDS011;68527;39.470;-0.376;2023-04-25T07:37:47;9.70;;;3.40;;
79124;SDS011;68527;39.470;-0.376;2023-04-25T07:40:13;13.50;;;3.10;;
79124;SDS011;68527;39.470;-0.376;2023-04-25T07:42:40;8.50;;;3.00;;
79124;SDS011;68527;39.470;-0.376;2023-04-25T07:47:32;8.50;;;3.00;;
79124;SDS011;68527;39.470;-0.376;2023-04-25T07:49:57;10.80;;;3.00;;
79124;SDS011;68527;39.470;-0.376;2023-04-25T07:54:48;10.20;;;2.60;;
79124;SDS011;68527;39.470;-0.376;2023-04-25T07:57:14;6.90;;;2.90;;
79124;SDS011;68527;39.470;-0.376;2023-04-25T07:59:41;7.60;;;2.50;;
79124;SDS011;68527;39.470;-0.376;2023-04-25T08:02:07;6.50;;;2.50;;
79124;SDS011;68527;39.470;-0.376;2023-04-25T08:04:33;14.20;;;2.60;;
79124;SDS011;68527;39.470;-0.376;2023-04-25T08:09:24;10.40;;;3.00;;
79124;SDS011;68527;39.470;-0.376;2023-04-25T08:11:50;7.30;;;2.80;;
79124;SDS011;68527;39.470;-0.376;2023-04-25T08:14:15;9.70;;;3.40;;
79124;SDS011;68527;39.470;-0.376;2023-04-25T08:16:41;8.50;;;2.80;;
79124;SDS011;68527;39.470;-0.376;2023-04-25T08:19:07;8.30;;;2.90;;
79124;SDS011;68527;39.470;-0.376;2023-04-25T08:21:32;8.10;;;2.90;;
79124;SDS011;68527;39.470;-0.376;2023-04-25T08:23:58;6.90;;;2.80;;
79124;SDS011;68527;39.470;-0.376;2023-04-25T08:26:24;8.00;;;2.80;;
79124;SDS011;68527;39.470;-0.376;2023-04-25T08:28:50;7.90;;;3.10;;
79124;SDS011;68527;39.470;-0.376;2023-04-25T08:31:16;7.70;;;2.70;;
79124;SDS011;68527;39.470;-0.376;2023-04-25T08:33:42;5.90;;;2.60;;
79124;SDS011;68527;39.470;-0.376;2023-04-25T08:36:08;7.60;;;3.50;;
79124;SDS011;68527;39.470;-0.376;2023-04-25T08:38:33;9.80;;;3.40;;
79124;SDS011;68527;39.470;-0.376;2023-04-25T08:40:59;15.00;;;3.70;;
79124;SDS011;68527;39.470;-0.376;2023-04-25T08:43:26;12.80;;;3.10;;
79124;SDS011;68527;39.470;-0.376;2023-04-25T08:45:54;11.10;;;2.90;;
79124;SDS011;68527;39.470;-0.376;2023-04-25T08:48:24;8.30;;;3.00;;
79124;SDS011;68527;39.470;-0.376;2023-04-25T08:50:50;9.80;;;2.80;;
79124;SDS011;68527;39.470;-0.376;2023-04-25T08:53:25;11.60;;;3.20;;
79124;SDS011;68527;39.470;-0.376;2023-04-25T08:55:53;9.00;;;2.70;;
79124;SDS011;68527;39.470;-0.376;2023-04-25T08:58:19;12.30;;;3.20;;
79124;SDS011;68527;39.470;-0.376;2023-04-25T09:00:46;9.10;;;2.90;;
79124;SDS011;68527;39.470;-0.376;2023-04-25T09:03:12;9.00;;;3.10;;
79124;SDS011;68527;39.470;-0.376;2023-04-25T09:05:39;4.90;;;2.60;;
79124;SDS011;68527;39.470;-0.376;2023-04-25T09:08:05;10.40;;;3.00;;
79124;SDS011;68527;39.470;-0.376;2023-04-25T09:10:32;8.00;;;3.00;;
79124;SDS011;68527;39.470;-0.376;2023-04-25T09:13:02;10.00;;;3.10;;
79124;SDS011;68527;39.470;-0.376;2023-04-25T09:15:31;4.80;;;2.50;;
79124;SDS011;68527;39.470;-0.376;2023-04-25T09:18:01;4.80;;;2.80;;
79124;SDS011;68527;39.470;-0.376;2023-04-25T09:20:27;8.00;;;3.00;;
79124;SDS011;68527;39.470;-0.376;2023-04-25T09:23:03;7.50;;;3.20;;
79124;SDS011;68527;39.470;-0.376;2023-04-25T09:25:36;8.10;;;2.90;;
79124;SDS011;68527;39.470;-0.376;2023-04-25T09:28:05;8.20;;;3.10;;
79124;SDS011;68527;39.470;-0.376;2023-04-25T09:30:32;8.40;;;3.10;;
79124;SDS011;68527;39.470;-0.376;2023-04-25T09:33:08;8.50;;;2.60;;
79124;SDS011;68527;39.470;-0.376;2023-04-25T09:35:44;5.30;;;2.70;;
79124;SDS011;68527;39.470;-0.376;2023-04-25T09:38:18;7.50;;;2.70;;
79124;SDS011;68527;39.470;-0.376;2023-04-25T09:40:44;6.90;;;2.80;;
79124;SDS011;68527;39.470;-0.376;2023-04-25T09:43:23;5.50;;;2.60;;
79124;SDS011;68527;39.470;-0.376;2023-04-25T09:45:50;7.30;;;2.90;;
79124;SDS011;68527;39.470;-0.376;2023-04-25T09:48:18;6.50;;;2.80;;
79124;SDS011;68527;39.470;-0.376;2023-04-25T09:51:06;6.20;;;3.10;;
79124;SDS011;68527;39.470;-0.376;2023-04-25T09:53:36;4.80;;;2.40;;
79124;SDS011;68527;39.470;-0.376;2023-04-25T09:56:04;5.00;;;2.80;;
79124;SDS011;68527;39.470;-0.376;2023-04-25T09:58:32;5.80;;;2.40;;
79124;SDS011;68527;39.470;-0.376;2023-04-25T10:01:03;7.20;;;2.40;;
79124;SDS011;68527;39.470;-0.376;2023-04-25T10:03:30;6.80;;;2.50;;
79124;SDS011;68527;39.470;-0.376;2023-04-25T10:05:58;5.60;;;2.50;;
79124;SDS011;68527;39.470;-0.376;2023-04-25T10:08:25;5.20;;;3.00;;
79124;SDS011;68527;39.470;-0.376;2023-04-25T10:10:57;7.00;;;2.50;;
79124;SDS011;68527;39.470;-0.376;2023-04-25T10:13:25;4.20;;;2.60;;
79124;SDS011;68527;39.470;-0.376;2023-04-25T10:15:51;5.90;;;2.70;;
79124;SDS011;68527;39.470;-0.376;2023-04-25T10:18:17;7.70;;;2.50;;
79124;SDS011;68527;39.470;-0.376;2023-04-25T10:20:45;7.40;;;2.20;;
79124;SDS011;68527;39.470;-0.376;2023-04-25T10:23:12;4.20;;;2.50;;
79124;SDS011;68527;39.470;-0.376;2023-04-25T10:25:38;5.60;;;2.40;;
79124;SDS011;68527;39.470;-0.376;2023-04-25T10:28:06;8.70;;;2.40;;
79124;SDS011;68527;39.470;-0.376;2023-04-25T10:30:31;6.50;;;2.90;;
79124;SDS011;68527;39.470;-0.376;2023-04-25T10:32:58;7.50;;;2.70;;
79124;SDS011;68527;39.470;-0.376;2023-04-25T10:35:27;6.00;;;2.50;;
79124;SDS011;68527;39.470;-0.376;2023-04-25T10:37:59;5.00;;;2.60;;
79124;SDS011;68527;39.470;-0.376;2023-04-25T10:40:45;9.20;;;3.00;;
79124;SDS011;68527;39.470;-0.376;2023-04-25T10:45:57;9.20;;;3.00;;
79124;SDS011;68527;39.470;-0.376;2023-04-25T10:48:25;4.60;;;3.00;;
79124;SDS011;68527;39.470;-0.376;2023-04-25T10:51:06;9.00;;;3.10;;
79124;SDS011;68527;39.470;-0.376;2023-04-25T10:56:09;7.60;;;3.20;;
79124;SDS011;68527;39.470;-0.376;2023-04-25T10:58:41;7.40;;;2.80;;
79124;SDS011;68527;39.470;-0.376;2023-04-25T11:01:07;5.40;;;3.00;;
79124;SDS011;68527;39.470;-0.376;2023-04-25T11:03:36;7.50;;;3.10;;
79124;SDS011;68527;39.470;-0.376;2023-04-25T11:06:04;7.40;;;2.90;;
79124;SDS011;68527;39.470;-0.376;2023-04-25T11:08:47;5.00;;;2.50;;
79124;SDS011;68527;39.470;-0.376;2023-04-25T11:11:15;7.60;;;3.10;;
79124;SDS011;68527;39.470;-0.376;2023-04-25T11:13:44;8.50;;;3.10;;
79124;SDS011;68527;39.470;-0.376;2023-04-25T11:16:10;6.40;;;2.90;;
79124;SDS011;68527;39.470;-0.376;2023-04-25T11:18:36;6.50;;;3.30;;
79124;SDS011;68527;39.470;-0.376;2023-04-25T11:21:03;5.20;;;2.80;;
79124;SDS011;68527;39.470;-0.376;2023-04-25T11:23:29;6.40;;;3.20;;
79124;SDS011;68527;39.470;-0.376;2023-04-25T11:25:55;6.30;;;3.00;;
79124;SDS011;68527;39.470;-0.376;2023-04-25T11:28:21;4.80;;;3.00;;
79124;SDS011;68527;39.470;-0.376;2023-04-25T11:30:48;9.00;;;3.20;;
79124;SDS011;68527;39.470;-0.376;2023-04-25T11:33:15;6.10;;;2.70;;
79124;SDS011;68527;39.470;-0.376;2023-04-25T11:35:42;6.50;;;2.80;;
79124;SDS011;68527;39.470;-0.376;2023-04-25T11:38:07;6.10;;;2.80;;
79124;SDS011;68527;39.470;-0.376;2023-04-25T11:40:34;6.70;;;2.90;;
79124;SDS011;68527;39.470;-0.376;2023-04-25T11:43:01;6.50;;;3.00;;
79124;SDS011;68527;39.470;-0.376;2023-04-25T11:45:26;4.50;;;3.00;;
79124;SDS011;68527;39.470;-0.376;2023-04-25T11:47:52;6.30;;;3.10;;
79124;SDS011;68527;39.470;-0.376;2023-04-25T11:50:18;7.40;;;3.00;;
79124;SDS011;68527;39.470;-0.376;2023-04-25T11:52:46;6.20;;;2.90;;
79124;SDS011;68527;39.470;-0.376;2023-04-25T11:55:16;6.90;;;3.10;;
79124;SDS011;68527;39.470;-0.376;2023-04-25T11:57:47;5.80;;;3.00;;
79124;SDS011;68527;39.470;-0.376;2023-04-25T12:00:18;7.00;;;3.30;;
79124;SDS011;68527;39.470;-0.376;2023-04-25T12:02:55;6.10;;;3.00;;
79124;SDS011;68527;39.470;-0.376;2023-04-25T12:05:24;4.40;;;2.80;;
79124;SDS011;68527;39.470;-0.376;2023-04-25T12:07:51;4.30;;;2.80;;
79124;SDS011;68527;39.470;-0.376;2023-04-25T12:10:17;6.00;;;3.00;;
79124;SDS011;68527;39.470;-0.376;2023-04-25T12:12:44;4.00;;;2.70;;
79124;SDS011;68527;39.470;-0.376;2023-04-25T12:15:11;7.60;;;3.00;;
79124;SDS011;68527;39.470;-0.376;2023-04-25T12:17:39;6.40;;;2.60;;
79124;SDS011;68527;39.470;-0.376;2023-04-25T12:20:06;5.60;;;3.30;;
79124;SDS011;68527;39.470;-0.376;2023-04-25T12:22:35;7.10;;;2.80;;
79124;SDS011;68527;39.470;-0.376;2023-04-25T12:25:02;5.60;;;2.60;;
79124;SDS011;68527;39.470;-0.376;2023-04-25T12:27:30;5.10;;;3.00;;
79124;SDS011;68527;39.470;-0.376;2023-04-25T12:29:56;7.30;;;3.00;;
79124;SDS011;68527;39.470;-0.376;2023-04-25T12:32:22;6.50;;;2.90;;
79124;SDS011;68527;39.470;-0.376;2023-04-25T12:34:48;6.10;;;3.00;;
79124;SDS011;68527;39.470;-0.376;2023-04-25T12:37:14;7.40;;;2.80;;
79124;SDS011;68527;39.470;-0.376;2023-04-25T12:39:40;3.90;;;2.40;;
79124;SDS011;68527;39.470;-0.376;2023-04-25T12:42:05;6.20;;;2.70;;
79124;SDS011;68527;39.470;-0.376;2023-04-25T12:44:33;5.10;;;2.80;;
79124;SDS011;68527;39.470;-0.376;2023-04-25T12:46:59;7.60;;;2.70;;
79124;SDS011;68527;39.470;-0.376;2023-04-25T12:49:25;15.00;;;3.60;;
79124;SDS011;68527;39.470;-0.376;2023-04-25T12:51:50;11.90;;;3.60;;
79124;SDS011;68527;39.470;-0.376;2023-04-25T12:54:17;7.60;;;3.80;;
79124;SDS011;68527;39.470;-0.376;2023-04-25T12:56:42;9.20;;;3.40;;
79124;SDS011;68527;39.470;-0.376;2023-04-25T12:59:08;6.60;;;3.50;;
79124;SDS011;68527;39.470;-0.376;2023-04-25T13:01:34;5.50;;;2.90;;
79124;SDS011;68527;39.470;-0.376;2023-04-25T13:04:00;5.50;;;2.80;;
79124;SDS011;68527;39.470;-0.376;2023-04-25T13:06:25;7.40;;;3.10;;
79124;SDS011;68527;39.470;-0.376;2023-04-25T13:08:51;8.30;;;3.00;;
79124;SDS011;68527;39.470;-0.376;2023-04-25T13:11:17;11.90;;;3.30;;
79124;SDS011;68527;39.470;-0.376;2023-04-25T13:13:43;8.30;;;3.80;;
79124;SDS011;68527;39.470;-0.376;2023-04-25T13:16:08;9.30;;;3.40;;
79124;SDS011;68527;39.470;-0.376;2023-04-25T13:18:34;7.60;;;3.00;;
79124;SDS011;68527;39.470;-0.376;2023-04-25T13:21:00;7.10;;;3.20;;
79124;SDS011;68527;39.470;-0.376;2023-04-25T13:23:27;8.50;;;3.20;;
79124;SDS011;68527;39.470;-0.376;2023-04-25T13:25:53;6.90;;;3.50;;
79124;SDS011;68527;39.470;-0.376;2023-04-25T13:28:20;8.30;;;3.10;;
79124;SDS011;68527;39.470;-0.376;2023-04-25T13:30:46;8.70;;;3.80;;
79124;SDS011;68527;39.470;-0.376;2023-04-25T13:33:13;11.10;;;3.30;;
79124;SDS011;68527;39.470;-0.376;2023-04-25T13:35:39;8.00;;;3.00;;
79124;SDS011;68527;39.470;-0.376;2023-04-25T13:38:05;9.40;;;3.20;;
79124;SDS011;68527;39.470;-0.376;2023-04-25T13:40:30;9.80;;;3.30;;
79124;SDS011;68527;39.470;-0.376;2023-04-25T13:42:57;5.40;;;2.90;;
79124;SDS011;68527;39.470;-0.376;2023-04-25T13:45:22;7.60;;;3.20;;
79124;SDS011;68527;39.470;-0.376;2023-04-25T13:47:48;5.50;;;2.80;;
79124;SDS011;68527;39.470;-0.376;2023-04-25T13:50:14;5.60;;;3.00;;
79124;SDS011;68527;39.470;-0.376;2023-04-25T13:52:40;5.80;;;3.00;;
79124;SDS011;68527;39.470;-0.376;2023-04-25T13:55:06;4.00;;;2.80;;
79124;SDS011;68527;39.470;-0.376;2023-04-25T13:57:33;7.50;;;3.20;;
79124;SDS011;68527;39.470;-0.376;2023-04-25T14:00:00;6.00;;;3.00;;
79124;SDS011;68527;39.470;-0.376;2023-04-25T14:02:29;6.20;;;2.90;;
79124;SDS011;68527;39.470;-0.376;2023-04-25T14:04:56;8.00;;;3.00;;
79124;SDS011;68527;39.470;-0.376;2023-04-25T14:09:47;6.10;;;2.60;;
79124;SDS011;68527;39.470;-0.376;2023-04-25T14:12:13;5.40;;;2.80;;
79124;SDS011;68527;39.470;-0.376;2023-04-25T14:14:38;5.20;;;2.50;;
79124;SDS011;68527;39.470;-0.376;2023-04-25T14:17:04;3.70;;;2.60;;
79124;SDS011;68527;39.470;-0.376;2023-04-25T14:19:30;4.40;;;2.80;;
79124;SDS011;68527;39.470;-0.376;2023-04-25T14:21:55;4.90;;;2.70;;
79124;SDS011;68527;39.470;-0.376;2023-04-25T14:24:21;4.50;;;3.00;;
79124;SDS011;68527;39.470;-0.376;2023-04-25T14:26:47;5.30;;;2.80;;
79124;SDS011;68527;39.470;-0.376;2023-04-25T14:29:12;4.70;;;2.70;;
79124;SDS011;68527;39.470;-0.376;2023-04-25T14:31:39;8.00;;;2.60;;
79124;SDS011;68527;39.470;-0.376;2023-04-25T14:34:08;8.80;;;2.90;;
79124;SDS011;68527;39.470;-0.376;2023-04-25T14:36:35;6.50;;;2.70;;
79124;SDS011;68527;39.470;-0.376;2023-04-25T14:39:01;5.60;;;3.20;;
79124;SDS011;68527;39.470;-0.376;2023-04-25T14:41:27;6.40;;;2.70;;
79124;SDS011;68527;39.470;-0.376;2023-04-25T14:43:53;7.20;;;3.30;;
79124;SDS011;68527;39.470;-0.376;2023-04-25T14:46:19;4.70;;;2.60;;
79124;SDS011;68527;39.470;-0.376;2023-04-25T14:48:45;5.90;;;2.90;;
79124;SDS011;68527;39.470;-0.376;2023-04-25T14:51:12;4.80;;;2.70;;
79124;SDS011;68527;39.470;-0.376;2023-04-25T14:53:37;5.90;;;3.40;;
79124;SDS011;68527;39.470;-0.376;2023-04-25T14:56:06;6.00;;;2.90;;
79124;SDS011;68527;39.470;-0.376;2023-04-25T14:58:32;6.60;;;2.50;;
79124;SDS011;68527;39.470;-0.376;2023-04-25T15:00:58;5.70;;;2.50;;
79124;SDS011;68527;39.470;-0.376;2023-04-25T15:03:25;3.90;;;2.70;;
79124;SDS011;68527;39.470;-0.376;2023-04-25T15:05:51;5.30;;;2.70;;
79124;SDS011;68527;39.470;-0.376;2023-04-25T15:08:19;6.10;;;2.60;;
79124;SDS011;68527;39.470;-0.376;2023-04-25T15:10:45;7.40;;;3.00;;
79124;SDS011;68527;39.470;-0.376;2023-04-25T15:13:11;6.60;;;2.80;;
79124;SDS011;68527;39.470;-0.376;2023-04-25T15:15:37;5.30;;;2.70;;
79124;SDS011;68527;39.470;-0.376;2023-04-25T15:18:02;7.40;;;2.60;;
79124;SDS011;68527;39.470;-0.376;2023-04-25T15:20:28;4.00;;;2.80;;
79124;SDS011;68527;39.470;-0.376;2023-04-25T15:22:54;6.90;;;2.70;;
79124;SDS011;68527;39.470;-0.376;2023-04-25T15:25:20;6.10;;;2.60;;
79124;SDS011;68527;39.470;-0.376;2023-04-25T15:27:46;8.80;;;2.50;;
79124;SDS011;68527;39.470;-0.376;2023-04-25T15:30:16;5.10;;;2.60;;
79124;SDS011;68527;39.470;-0.376;2023-04-25T15:32:46;3.40;;;2.60;;
79124;SDS011;68527;39.470;-0.376;2023-04-25T15:35:12;8.10;;;3.40;;
79124;SDS011;68527;39.470;-0.376;2023-04-25T15:37:38;5.10;;;2.50;;
79124;SDS011;68527;39.470;-0.376;2023-04-25T15:40:08;6.20;;;2.80;;
79124;SDS011;68527;39.470;-0.376;2023-04-25T15:42:41;4.30;;;2.80;;
79124;SDS011;68527;39.470;-0.376;2023-04-25T15:45:08;5.60;;;2.90;;